createdAt,value
2023-05-01T00:00:58.602Z,0.77
2023-05-01T00:03:25.838Z,0.75
2023-05-01T00:05:59.703Z,1.33
2023-05-01T00:08:26.793Z,0.60
2023-05-01T00:10:54.287Z,0.70
2023-05-01T00:13:23.462Z,0.60
2023-05-01T00:15:51.086Z,0.77
2023-05-01T00:18:18.502Z,1.67
2023-05-01T00:20:45.561Z,0.60
2023-05-01T00:23:13.142Z,0.70
2023-05-01T00:25:40.822Z,0.82
2023-05-01T00:28:07.997Z,0.77
2023-05-01T00:30:36.009Z,0.60
2023-05-01T00:33:03.244Z,1.20
2023-05-01T00:35:31.437Z,0.65
2023-05-01T00:37:59.001Z,0.80
2023-05-01T00:40:26.148Z,0.52
2023-05-01T00:42:53.112Z,0.95
2023-05-01T00:45:20.763Z,0.70
2023-05-01T00:47:48.372Z,0.68
2023-05-01T00:50:15.459Z,0.60
2023-05-01T00:52:42.828Z,0.55
2023-05-01T00:55:10.063Z,0.55
2023-05-01T00:57:37.487Z,0.70
2023-05-01T01:00:05.751Z,0.63
2023-05-01T01:02:33.318Z,0.65
2023-05-01T01:05:00.542Z,0.80
2023-05-01T01:08:09.570Z,0.55
2023-05-01T01:10:42.517Z,0.57
2023-05-01T01:13:15.215Z,0.73
2023-05-01T01:16:08.265Z,0.60
2023-05-01T01:18:48.936Z,0.70
2023-05-01T01:21:23.914Z,0.50
2023-05-01T01:24:03.808Z,1.17
2023-05-01T01:26:50.707Z,0.55
2023-05-01T01:29:44.724Z,0.95
2023-05-01T01:32:24.247Z,0.60
2023-05-01T01:34:55.681Z,1.27
2023-05-01T01:37:33.734Z,0.50
2023-05-01T01:40:08.266Z,0.70
2023-05-01T01:42:49.907Z,0.60
2023-05-01T01:45:23.530Z,0.65
2023-05-01T01:47:53.591Z,0.55
2023-05-01T01:50:25.051Z,0.90
2023-05-01T01:52:53.461Z,2.15
2023-05-01T01:55:25.725Z,0.85
2023-05-01T01:57:53.586Z,0.93
2023-05-01T02:00:22.131Z,1.95
2023-05-01T02:02:51.193Z,0.60
2023-05-01T02:05:20.612Z,0.95
2023-05-01T02:07:50.652Z,0.95
2023-05-01T02:10:19.308Z,0.82
2023-05-01T02:12:48.796Z,1.02
2023-05-01T02:15:18.659Z,0.40
2023-05-01T02:17:46.410Z,0.50
2023-05-01T02:20:14.469Z,0.73
2023-05-01T02:22:42.471Z,0.50
2023-05-01T02:25:12.376Z,0.60
2023-05-01T02:27:45.301Z,1.80
2023-05-01T02:30:12.804Z,0.75
2023-05-01T02:32:40.267Z,0.60
2023-05-01T02:35:08.168Z,1.15
2023-05-01T02:37:35.110Z,0.63
2023-05-01T02:40:03.376Z,1.20
2023-05-01T02:42:32.062Z,0.85
2023-05-01T02:45:04.378Z,1.05
2023-05-01T02:47:34.176Z,2.15
2023-05-01T02:50:02.439Z,1.15
2023-05-01T02:52:29.935Z,0.82
2023-05-01T02:54:57.563Z,1.33
2023-05-01T02:57:24.717Z,0.63
2023-05-01T02:59:51.642Z,0.70
2023-05-01T03:02:18.846Z,1.15
2023-05-01T03:04:45.863Z,2.03
2023-05-01T03:07:12.872Z,1.65
2023-05-01T03:09:39.872Z,0.88
2023-05-01T03:12:06.826Z,1.40
2023-05-01T03:14:33.844Z,0.60
2023-05-01T03:17:01.199Z,0.70
2023-05-01T03:19:28.446Z,1.40
2023-05-01T03:21:55.391Z,0.55
2023-05-01T03:24:22.246Z,1.48
2023-05-01T03:26:49.179Z,1.95
2023-05-01T03:29:16.137Z,0.45
2023-05-01T03:31:43.113Z,2.03
2023-05-01T03:34:10.098Z,0.75
2023-05-01T03:36:37.043Z,0.77
2023-05-01T03:39:05.228Z,0.52
2023-05-01T03:41:32.168Z,0.75
2023-05-01T03:43:59.192Z,0.90
2023-05-01T03:46:26.216Z,0.77
2023-05-01T03:48:53.171Z,0.65
2023-05-01T03:51:20.167Z,2.75
2023-05-01T03:53:47.065Z,1.15
2023-05-01T03:56:14.227Z,0.55
2023-05-01T03:58:41.336Z,0.50
2023-05-01T04:01:08.249Z,0.50
2023-05-01T04:03:35.263Z,0.50
2023-05-01T04:06:02.915Z,0.90
2023-05-01T04:08:29.943Z,1.05
2023-05-01T04:10:56.986Z,0.70
2023-05-01T04:13:23.924Z,1.35
2023-05-01T04:15:50.894Z,1.77
2023-05-01T04:18:17.918Z,2.15
2023-05-01T04:20:45.015Z,0.80
2023-05-01T04:23:12.489Z,1.08
2023-05-01T04:25:39.508Z,0.52
2023-05-01T04:28:06.449Z,0.95
2023-05-01T04:30:34.251Z,0.63
2023-05-01T04:33:02.171Z,0.60
2023-05-01T04:35:29.189Z,1.20
2023-05-01T04:37:56.169Z,1.10
2023-05-01T04:40:23.099Z,1.52
2023-05-01T04:42:50.080Z,1.42
2023-05-01T04:45:17.176Z,1.98
2023-05-01T04:47:44.707Z,0.73
2023-05-01T04:50:12.234Z,1.83
2023-05-01T04:52:39.556Z,1.17
2023-05-01T04:55:07.088Z,0.95
2023-05-01T04:57:34.107Z,1.90
2023-05-01T05:00:01.297Z,0.90
2023-05-01T05:02:28.279Z,0.50
2023-05-01T05:04:56.706Z,0.65
2023-05-01T05:07:23.972Z,21.13
2023-05-01T05:09:51.251Z,4.25
2023-05-01T05:12:18.241Z,3.42
2023-05-01T05:14:45.341Z,6.32
2023-05-01T05:17:12.379Z,7.25
2023-05-01T05:19:39.435Z,5.45
2023-05-01T05:22:06.419Z,3.47
2023-05-01T05:24:33.473Z,1.38
2023-05-01T05:27:00.390Z,1.17
2023-05-01T05:29:27.550Z,3.20
2023-05-01T05:31:54.633Z,1.08
2023-05-01T05:34:21.688Z,11.65
2023-05-01T05:36:48.655Z,8.73
2023-05-01T05:39:15.857Z,6.07
2023-05-01T05:41:42.838Z,9.40
2023-05-01T05:44:09.839Z,6.25
2023-05-01T05:46:36.890Z,9.82
2023-05-01T05:49:03.867Z,20.67
2023-05-01T05:51:30.843Z,10.80
2023-05-01T05:53:57.925Z,4.28
2023-05-01T05:56:24.920Z,5.45
2023-05-01T05:58:51.886Z,11.80
2023-05-01T06:01:18.886Z,9.77
2023-05-01T06:03:45.865Z,13.55
2023-05-01T06:06:13.333Z,11.70
2023-05-01T06:08:40.395Z,17.30
2023-05-01T06:11:09.473Z,31.17
2023-05-01T06:13:36.813Z,19.17
2023-05-01T06:16:04.270Z,27.15
2023-05-01T06:18:31.506Z,19.95
2023-05-01T06:20:58.829Z,7.22
2023-05-01T06:23:26.144Z,17.95
2023-05-01T06:25:53.171Z,15.57
2023-05-01T06:28:20.266Z,14.57
2023-05-01T06:30:48.168Z,19.60
2023-05-01T06:33:15.575Z,6.97
2023-05-01T06:35:42.835Z,12.73
2023-05-01T06:38:09.884Z,12.65
2023-05-01T06:40:37.021Z,77.05
2023-05-01T06:43:04.610Z,24.02
2023-05-01T06:45:31.654Z,25.70
2023-05-01T06:47:58.907Z,15.43
2023-05-01T06:50:26.118Z,35.05
2023-05-01T06:52:53.068Z,16.83
2023-05-01T06:55:20.181Z,21.13
2023-05-01T06:57:47.126Z,12.02
2023-05-01T07:00:15.504Z,15.25
2023-05-01T07:02:42.775Z,8.13
2023-05-01T07:05:09.927Z,11.30
2023-05-01T07:07:38.878Z,10.23
2023-05-01T07:10:09.535Z,11.10
2023-05-01T07:12:37.590Z,5.95
2023-05-01T07:15:05.033Z,5.93
2023-05-01T07:17:32.096Z,16.50
2023-05-01T07:19:59.785Z,10.07
2023-05-01T07:22:26.946Z,4.50
2023-05-01T07:24:54.143Z,13.50
2023-05-01T07:27:21.497Z,5.78
2023-05-01T07:29:48.493Z,3.17
2023-05-01T07:32:16.065Z,6.43
2023-05-01T07:34:43.285Z,7.40
2023-05-01T07:37:10.371Z,6.40
2023-05-01T07:39:37.438Z,3.05
2023-05-01T07:42:07.920Z,2.58
2023-05-01T07:44:34.903Z,2.55
2023-05-01T07:47:06.220Z,2.28
2023-05-01T07:49:38.372Z,1.70
2023-05-01T07:52:08.780Z,3.05
2023-05-01T07:54:36.174Z,3.88
2023-05-01T07:57:04.169Z,6.93
2023-05-01T07:59:31.219Z,2.72
2023-05-01T08:01:58.416Z,2.63
2023-05-01T08:04:25.636Z,3.28
2023-05-01T08:06:52.913Z,2.72
2023-05-01T08:09:20.047Z,19.60
2023-05-01T08:11:47.127Z,4.68
2023-05-01T08:14:14.557Z,1.90
2023-05-01T08:16:41.867Z,1.80
2023-05-01T08:19:09.363Z,3.03
2023-05-01T08:21:36.412Z,0.70
2023-05-01T08:24:04.083Z,2.97
2023-05-01T08:26:31.133Z,3.55
2023-05-01T08:28:58.125Z,3.65
2023-05-01T08:31:26.269Z,1.95
2023-05-01T08:33:53.472Z,1.63
2023-05-01T08:36:21.393Z,3.28
2023-05-01T08:38:48.924Z,5.50
2023-05-01T08:41:23.329Z,4.55
2023-05-01T08:43:50.962Z,9.40
2023-05-01T08:46:26.339Z,7.30
2023-05-01T08:48:57.806Z,5.15
2023-05-01T08:51:26.540Z,13.05
2023-05-01T08:53:58.350Z,5.47
2023-05-01T08:56:26.034Z,12.02
2023-05-01T08:58:56.607Z,11.85
2023-05-01T09:01:24.662Z,3.33
2023-05-01T09:03:53.487Z,9.00
2023-05-01T09:06:21.926Z,2.60
2023-05-01T09:08:49.329Z,3.90
2023-05-01T09:11:17.024Z,3.67
2023-05-01T09:13:44.626Z,1.05
2023-05-01T09:16:12.287Z,5.40
2023-05-01T09:18:41.541Z,4.07
2023-05-01T09:21:08.942Z,29.92
2023-05-01T09:23:38.208Z,3.53
2023-05-01T09:26:07.422Z,3.35
2023-05-01T09:28:48.467Z,8.23
2023-05-01T09:31:28.282Z,3.95
2023-05-01T09:34:01.193Z,0.95
2023-05-01T09:36:33.103Z,0.75
2023-05-01T09:39:04.596Z,0.20
2023-05-01T09:41:33.622Z,8.98
2023-05-01T09:44:01.927Z,5.70
2023-05-01T09:46:29.286Z,19.98
2023-05-01T09:49:01.561Z,13.63
2023-05-01T09:51:28.719Z,7.82
2023-05-01T09:54:04.835Z,22.58
2023-05-01T09:56:34.565Z,4.03
2023-05-01T09:59:20.519Z,6.70
2023-05-01T10:01:50.138Z,6.28
2023-05-01T10:04:17.846Z,3.20
2023-05-01T10:06:45.236Z,4.78
2023-05-01T10:09:17.834Z,3.90
2023-05-01T10:11:56.554Z,7.07
2023-05-01T10:14:28.589Z,5.50
2023-05-01T10:16:58.385Z,0.73
2023-05-01T10:19:26.093Z,4.88
2023-05-01T10:21:53.920Z,2.05
2023-05-01T10:24:21.334Z,1.45
2023-05-01T10:26:49.306Z,0.50
2023-05-01T10:29:16.771Z,0.88
2023-05-01T10:31:44.001Z,0.75
2023-05-01T10:34:17.189Z,1.20
2023-05-01T10:36:50.071Z,1.00
2023-05-01T10:39:33.084Z,0.52
2023-05-01T10:42:15.342Z,2.15
2023-05-01T10:44:43.342Z,0.40
2023-05-01T10:47:25.785Z,2.13
2023-05-01T10:50:10.251Z,2.22
2023-05-01T10:53:12.079Z,0.88
2023-05-01T10:55:43.988Z,0.57
2023-05-01T10:58:35.100Z,2.90
2023-05-01T11:01:31.715Z,5.63
2023-05-01T11:04:08.785Z,4.60
2023-05-01T11:06:38.595Z,6.10
2023-05-01T11:09:36.582Z,6.93
2023-05-01T11:12:04.294Z,35.25
2023-05-01T11:15:04.176Z,32.40
2023-05-01T11:17:40.401Z,19.40
2023-05-01T11:20:08.276Z,5.82
2023-05-01T11:22:36.813Z,4.47
2023-05-01T11:25:05.621Z,1.80
2023-05-01T11:27:32.789Z,3.75
2023-05-01T11:30:00.615Z,4.38
2023-05-01T11:32:30.551Z,1.52
2023-05-01T11:34:58.352Z,1.58
2023-05-01T11:37:45.239Z,2.15
2023-05-01T11:40:29.860Z,4.40
2023-05-01T11:43:03.121Z,4.43
2023-05-01T11:45:31.179Z,68.10
2023-05-01T11:48:00.557Z,16.52
2023-05-01T11:50:38.246Z,9.57
2023-05-01T11:53:21.364Z,17.52
2023-05-01T11:55:49.945Z,12.95
2023-05-01T11:58:17.473Z,20.45
2023-05-01T12:00:44.639Z,65.05
2023-05-01T12:03:15.673Z,18.83
2023-05-01T12:05:44.315Z,29.90
2023-05-01T12:08:15.379Z,10.18
2023-05-01T12:10:43.925Z,15.68
2023-05-01T12:13:13.916Z,21.55
2023-05-01T12:15:43.998Z,24.58
2023-05-01T12:18:15.247Z,13.98
2023-05-01T12:20:53.639Z,5.43
2023-05-01T12:23:32.015Z,8.27
2023-05-01T12:25:59.440Z,15.48
2023-05-01T12:28:28.125Z,19.25
2023-05-01T12:31:04.915Z,8.38
2023-05-01T12:33:32.782Z,12.95
2023-05-01T12:36:12.331Z,9.57
2023-05-01T12:38:39.465Z,11.18
2023-05-01T12:41:09.249Z,7.10
2023-05-01T12:43:38.532Z,11.02
2023-05-01T12:46:07.163Z,13.15
2023-05-01T12:48:39.699Z,3.83
2023-05-01T12:51:08.082Z,2.70
2023-05-01T12:53:35.882Z,4.45
2023-05-01T12:56:03.932Z,2.60
2023-05-01T12:58:37.663Z,3.15
2023-05-01T13:01:05.526Z,2.38
2023-05-01T13:03:34.290Z,12.00
2023-05-01T13:06:04.209Z,10.00
2023-05-01T13:08:34.806Z,16.85
2023-05-01T13:11:10.772Z,14.50
2023-05-01T13:13:37.958Z,7.43
2023-05-01T13:16:26.701Z,8.70
2023-05-01T13:18:54.106Z,0.95
2023-05-01T13:21:22.824Z,3.05
2023-05-01T13:23:55.767Z,0.98
2023-05-01T13:26:36.192Z,2.03
2023-05-01T13:29:06.585Z,3.47
2023-05-01T13:31:33.668Z,6.33
2023-05-01T13:34:01.342Z,4.80
2023-05-01T13:36:35.646Z,11.68
2023-05-01T13:39:03.548Z,4.07
2023-05-01T13:41:31.098Z,3.28
2023-05-01T13:43:58.353Z,1.70
2023-05-01T13:46:28.121Z,3.28
2023-05-01T13:48:55.665Z,3.97
2023-05-01T13:51:24.981Z,0.20
2023-05-01T13:53:54.306Z,1.48
2023-05-01T13:56:22.521Z,2.47
2023-05-01T13:58:50.797Z,13.65
2023-05-01T14:01:21.260Z,22.83
2023-05-01T14:03:49.659Z,279.20
2023-05-01T14:06:19.538Z,164.52
2023-05-01T14:08:48.292Z,105.28
2023-05-01T14:11:16.268Z,61.42
2023-05-01T14:13:48.896Z,27.20
2023-05-01T14:16:27.911Z,15.80
2023-05-01T14:18:57.643Z,38.38
2023-05-01T14:21:30.316Z,37.85
2023-05-01T14:23:58.583Z,20.75
2023-05-01T14:26:26.038Z,22.27
2023-05-01T14:28:53.143Z,22.48
2023-05-01T14:31:29.245Z,12.77
2023-05-01T14:33:57.986Z,25.05
2023-05-01T14:36:25.492Z,17.58
2023-05-01T14:38:53.487Z,10.55
2023-05-01T14:41:21.564Z,14.23
2023-05-01T14:43:54.058Z,13.38
2023-05-01T14:46:46.576Z,13.13
2023-05-01T14:49:24.736Z,8.07
2023-05-01T14:51:53.659Z,7.82
2023-05-01T14:54:21.715Z,9.15
2023-05-01T14:56:49.954Z,8.20
2023-05-01T14:59:17.596Z,6.38
2023-05-01T15:01:45.158Z,5.20
2023-05-01T15:04:15.379Z,7.00
2023-05-01T15:06:43.048Z,7.25
2023-05-01T15:09:10.245Z,7.78
2023-05-01T15:11:38.389Z,7.43
2023-05-01T15:14:06.583Z,5.47
2023-05-01T15:16:33.928Z,21.13
2023-05-01T15:19:01.875Z,21.70
2023-05-01T15:21:29.324Z,18.52
2023-05-01T15:23:56.520Z,14.88
2023-05-01T15:26:23.835Z,19.73
2023-05-01T15:28:51.207Z,13.63
2023-05-01T15:31:20.055Z,12.43
2023-05-01T15:33:47.936Z,15.13
2023-05-01T15:36:15.706Z,21.05
2023-05-01T15:38:43.096Z,14.50
2023-05-01T15:41:10.361Z,14.00
2023-05-01T15:43:38.550Z,17.50
2023-05-01T15:46:07.028Z,10.40
2023-05-01T15:48:34.708Z,18.48
2023-05-01T15:51:01.860Z,36.92
2023-05-01T15:53:29.389Z,22.10
2023-05-01T15:55:59.632Z,33.45
2023-05-01T15:58:26.783Z,27.90
2023-05-01T16:00:54.026Z,20.80
2023-05-01T16:03:21.868Z,37.65
2023-05-01T16:05:49.743Z,20.25
2023-05-01T16:08:19.473Z,17.70
2023-05-01T16:10:46.845Z,21.30
2023-05-01T16:13:15.170Z,23.25
2023-05-01T16:15:43.714Z,16.52
2023-05-01T16:18:21.292Z,34.10
2023-05-01T16:20:54.697Z,51.20
2023-05-01T16:23:23.240Z,36.55
2023-05-01T16:25:51.775Z,35.42
2023-05-01T16:28:19.690Z,35.33
2023-05-01T16:30:48.078Z,34.00
2023-05-01T16:33:21.505Z,20.95
2023-05-01T16:35:50.164Z,21.85
2023-05-01T16:38:18.383Z,19.67
2023-05-01T16:40:47.323Z,11.98
2023-05-01T16:43:14.444Z,17.10
2023-05-01T16:45:41.803Z,14.88
2023-05-01T16:48:09.046Z,22.85
2023-05-01T16:50:41.913Z,24.15
2023-05-01T16:53:09.130Z,47.00
2023-05-01T16:55:36.274Z,38.38
2023-05-01T16:58:03.552Z,39.97
2023-05-01T17:00:31.689Z,43.53
2023-05-01T17:02:59.555Z,35.65
2023-05-01T17:05:26.877Z,37.83
2023-05-01T17:07:54.693Z,23.60
2023-05-01T17:10:21.824Z,34.25
2023-05-01T17:12:48.993Z,33.90
2023-05-01T17:15:16.327Z,17.60
2023-05-01T17:17:43.387Z,18.55
2023-05-01T17:20:11.864Z,13.68
2023-05-01T17:22:38.963Z,14.80
2023-05-01T17:25:06.654Z,13.88
2023-05-01T17:27:34.349Z,11.65
2023-05-01T17:30:01.754Z,10.48
2023-05-01T17:32:36.536Z,5.53
2023-05-01T17:35:05.926Z,4.22
2023-05-01T17:37:33.469Z,6.13
2023-05-01T17:40:00.993Z,4.57
2023-05-01T17:42:28.643Z,8.88
2023-05-01T17:44:55.904Z,7.72
2023-05-01T17:47:25.917Z,13.68
2023-05-01T17:49:53.900Z,10.02
2023-05-01T17:52:21.536Z,5.75
2023-05-01T17:54:48.623Z,14.77
2023-05-01T17:57:16.286Z,9.60
2023-05-01T17:59:44.086Z,6.18
2023-05-01T18:02:11.612Z,5.93
2023-05-01T18:04:39.048Z,7.32
2023-05-01T18:07:06.788Z,5.88
2023-05-01T18:09:33.879Z,4.40
2023-05-01T18:12:00.960Z,5.22
2023-05-01T18:14:28.618Z,6.25
2023-05-01T18:16:56.162Z,10.07
2023-05-01T18:19:24.220Z,25.75
2023-05-01T18:21:51.845Z,23.33
2023-05-01T18:24:19.468Z,22.92
2023-05-01T18:26:47.015Z,20.65
2023-05-01T18:29:14.848Z,23.13
2023-05-01T18:31:42.827Z,25.10
2023-05-01T18:34:12.400Z,14.25
2023-05-01T18:36:39.797Z,14.95
2023-05-01T18:39:13.563Z,18.40
2023-05-01T18:41:41.166Z,15.93
2023-05-01T18:44:08.559Z,19.75
2023-05-01T18:46:37.330Z,17.30
2023-05-01T18:49:05.259Z,17.48
2023-05-01T18:51:32.817Z,13.32
2023-05-01T18:54:01.667Z,12.80
2023-05-01T18:56:31.630Z,23.42
2023-05-01T18:58:59.001Z,27.10
2023-05-01T19:01:26.760Z,14.23
2023-05-01T19:03:59.310Z,12.80
2023-05-01T19:06:27.401Z,6.15
2023-05-01T19:08:55.290Z,7.32
2023-05-01T19:11:23.998Z,8.63
2023-05-01T19:13:51.318Z,7.28
2023-05-01T19:16:20.725Z,5.45
2023-05-01T19:18:49.130Z,4.13
2023-05-01T19:21:16.613Z,7.10
2023-05-01T19:23:44.032Z,4.30
2023-05-01T19:26:16.145Z,3.97
2023-05-01T19:28:45.303Z,4.90
2023-05-01T19:31:14.602Z,14.30
2023-05-01T19:33:41.967Z,18.42
2023-05-01T19:36:10.101Z,25.33
2023-05-01T19:38:37.648Z,24.20
2023-05-01T19:41:05.215Z,15.00
2023-05-01T19:43:34.045Z,18.05
2023-05-01T19:46:01.761Z,15.27
2023-05-01T19:48:29.991Z,16.48
2023-05-01T19:51:00.496Z,18.45
2023-05-01T19:53:31.857Z,7.13
2023-05-01T19:56:03.582Z,10.40
2023-05-01T19:58:31.194Z,6.60
2023-05-01T20:01:02.741Z,5.30
2023-05-01T20:03:30.290Z,7.90
2023-05-01T20:05:58.176Z,10.48
2023-05-01T20:08:25.748Z,7.82
2023-05-01T20:10:53.170Z,5.05
2023-05-01T20:13:20.678Z,9.07
2023-05-01T20:15:48.326Z,9.32
2023-05-01T20:18:18.813Z,9.27
2023-05-01T20:20:46.517Z,6.47
2023-05-01T20:23:15.662Z,4.57
2023-05-01T20:25:44.140Z,5.47
2023-05-01T20:28:15.029Z,8.85
2023-05-01T20:30:44.247Z,9.50
2023-05-01T20:33:12.472Z,6.55
2023-05-01T20:35:40.969Z,8.05
2023-05-01T20:38:08.442Z,5.50
2023-05-01T20:40:41.596Z,5.75
2023-05-01T20:43:09.152Z,4.25
2023-05-01T20:45:36.499Z,4.57
2023-05-01T20:48:04.030Z,5.07
2023-05-01T20:50:32.856Z,34.67
2023-05-01T20:53:04.503Z,25.08
2023-05-01T20:55:34.120Z,30.02
2023-05-01T20:58:01.536Z,20.42
2023-05-01T21:00:28.865Z,11.48
2023-05-01T21:02:58.449Z,9.57
2023-05-01T21:05:27.063Z,13.75
2023-05-01T21:07:54.347Z,10.32
2023-05-01T21:10:21.923Z,12.57
2023-05-01T21:12:49.272Z,8.85
2023-05-01T21:15:16.585Z,10.60
2023-05-01T21:17:43.908Z,11.77
2023-05-01T21:20:19.809Z,10.68
2023-05-01T21:22:49.180Z,6.65
2023-05-01T21:25:27.596Z,8.30
2023-05-01T21:27:55.041Z,8.95
2023-05-01T21:30:36.012Z,4.45
2023-05-01T21:33:09.461Z,4.15
2023-05-01T21:35:38.105Z,5.55
2023-05-01T21:38:06.337Z,5.60
2023-05-01T21:40:43.980Z,7.88
2023-05-01T21:43:11.527Z,6.30
2023-05-01T21:45:44.253Z,6.38
2023-05-01T21:48:16.779Z,6.03
2023-05-01T21:50:44.276Z,4.15
2023-05-01T21:53:11.945Z,4.72
2023-05-01T21:55:39.755Z,4.68
2023-05-01T21:58:07.188Z,4.80
2023-05-01T22:00:34.926Z,2.83
2023-05-01T22:03:06.608Z,4.22
2023-05-01T22:05:34.960Z,3.40
2023-05-01T22:08:02.297Z,6.05
2023-05-01T22:10:30.281Z,3.58
2023-05-01T22:12:57.548Z,3.58
2023-05-01T22:15:26.212Z,4.53
2023-05-01T22:17:53.624Z,3.25
2023-05-01T22:20:21.143Z,3.58
2023-05-01T22:22:48.411Z,2.83
2023-05-01T22:25:16.782Z,4.80
2023-05-01T22:27:44.148Z,2.72
2023-05-01T22:30:12.503Z,2.35
2023-05-01T22:32:41.309Z,3.28
2023-05-01T22:35:09.263Z,2.65
2023-05-01T22:37:36.662Z,2.85
2023-05-01T22:40:04.174Z,5.15
2023-05-01T22:42:31.415Z,2.85
2023-05-01T22:44:58.406Z,3.90
2023-05-01T22:47:25.721Z,3.22
2023-05-01T22:49:52.845Z,2.70
2023-05-01T22:52:19.905Z,3.47
2023-05-01T22:54:47.681Z,4.82
2023-05-01T22:57:14.723Z,2.92
2023-05-01T22:59:41.850Z,1.67
2023-05-01T23:02:09.753Z,4.55
2023-05-01T23:04:36.934Z,3.88
2023-05-01T23:07:04.191Z,3.35
2023-05-01T23:09:32.504Z,4.25
2023-05-01T23:11:59.495Z,4.00
2023-05-01T23:14:26.726Z,2.15
2023-05-01T23:16:54.008Z,1.88
2023-05-01T23:19:24.101Z,2.35
2023-05-01T23:21:52.324Z,4.57
2023-05-01T23:24:21.630Z,4.10
2023-05-01T23:26:48.765Z,2.40
2023-05-01T23:29:18.549Z,1.83
2023-05-01T23:31:48.028Z,2.85
2023-05-01T23:34:17.956Z,2.20
2023-05-01T23:36:47.110Z,3.25
2023-05-01T23:39:14.737Z,3.40
2023-05-01T23:41:42.629Z,4.28
2023-05-01T23:44:10.436Z,2.35
2023-05-01T23:46:38.362Z,2.65
2023-05-01T23:49:05.558Z,3.42
2023-05-01T23:51:32.747Z,2.35
2023-05-01T23:54:00.501Z,2.03
2023-05-01T23:56:27.483Z,2.55
2023-05-01T23:58:54.449Z,2.97
